createdAt,value
2022-10-02T00:02:42.059Z,15.31
2022-10-02T00:05:52.999Z,15.28
2022-10-02T00:09:04.730Z,15.26
2022-10-02T00:12:15.685Z,15.23
2022-10-02T00:15:27.780Z,15.23
2022-10-02T00:18:38.470Z,15.21
2022-10-02T00:22:02.728Z,15.19
2022-10-02T00:25:19.024Z,15.20
2022-10-02T00:28:29.971Z,15.20
2022-10-02T00:31:46.076Z,15.22
2022-10-02T00:35:05.708Z,15.23
2022-10-02T00:38:21.891Z,15.26
2022-10-02T00:41:55.811Z,15.28
2022-10-02T00:45:27.881Z,15.30
2022-10-02T00:48:55.135Z,15.32
2022-10-02T00:52:19.865Z,15.33
2022-10-02T00:55:53.226Z,15.35
2022-10-02T00:59:30.514Z,15.38
2022-10-02T01:02:57.943Z,15.40
2022-10-02T01:06:04.179Z,15.41
2022-10-02T01:09:08.804Z,15.43
2022-10-02T01:12:16.262Z,15.41
2022-10-02T01:15:29.127Z,15.43
2022-10-02T01:18:35.392Z,15.43
2022-10-02T01:21:50.843Z,15.43
2022-10-02T01:24:57.756Z,15.44
2022-10-02T01:28:05.840Z,15.45
2022-10-02T01:31:14.837Z,15.46
2022-10-02T01:34:21.655Z,15.46
2022-10-02T01:37:31.173Z,15.47
2022-10-02T01:40:38.935Z,15.47
2022-10-02T01:43:49.279Z,15.48
2022-10-02T01:47:02.584Z,15.47
2022-10-02T01:50:19.236Z,15.47
2022-10-02T01:53:33.079Z,15.47
2022-10-02T01:56:49.221Z,15.49
2022-10-02T02:00:07.710Z,15.51
2022-10-02T02:03:23.584Z,15.51
2022-10-02T02:06:35.450Z,15.51
2022-10-02T02:09:47.360Z,15.48
2022-10-02T02:13:01.861Z,15.46
2022-10-02T02:16:15.515Z,15.45
2022-10-02T02:19:27.151Z,15.43
2022-10-02T02:22:35.649Z,15.41
2022-10-02T02:25:45.390Z,15.41
2022-10-02T02:28:58.648Z,15.42
2022-10-02T02:32:09.359Z,15.40
2022-10-02T02:35:18.620Z,15.38
2022-10-02T02:38:30.886Z,15.37
2022-10-02T02:41:43.078Z,15.35
2022-10-02T02:44:54.275Z,15.33
2022-10-02T02:48:05.783Z,15.33
2022-10-02T02:51:16.529Z,15.35
2022-10-02T02:54:29.163Z,15.36
2022-10-02T02:57:41.635Z,15.36
2022-10-02T03:00:48.122Z,15.36
2022-10-02T03:03:54.427Z,15.37
2022-10-02T03:07:04.343Z,15.38
2022-10-02T03:10:17.554Z,15.37
2022-10-02T03:13:37.277Z,15.38
2022-10-02T03:16:55.277Z,15.41
2022-10-02T03:20:08.927Z,15.44
2022-10-02T03:23:23.788Z,15.46
2022-10-02T03:26:38.611Z,15.43
2022-10-02T03:29:51.918Z,15.44
2022-10-02T03:33:01.320Z,15.44
2022-10-02T03:36:08.121Z,15.42
2022-10-02T03:39:29.949Z,15.39
2022-10-02T03:42:38.287Z,15.37
2022-10-02T03:45:51.281Z,15.38
2022-10-02T03:48:58.140Z,15.40
2022-10-02T03:52:03.023Z,15.41
2022-10-02T03:55:22.694Z,15.40
2022-10-02T03:58:28.951Z,15.42
2022-10-02T04:01:38.344Z,15.45
2022-10-02T04:04:49.265Z,15.45
2022-10-02T04:07:59.122Z,15.46
2022-10-02T04:11:12.940Z,15.45
2022-10-02T04:14:24.269Z,15.45
2022-10-02T04:17:36.676Z,15.43
2022-10-02T04:20:48.827Z,15.40
2022-10-02T04:23:58.923Z,15.39
2022-10-02T04:27:09.461Z,15.42
2022-10-02T04:30:18.217Z,15.41
2022-10-02T04:33:26.192Z,15.42
2022-10-02T04:36:43.052Z,15.41
2022-10-02T04:40:06.656Z,15.41
2022-10-02T04:43:23.810Z,15.42
2022-10-02T04:46:47.624Z,15.45
2022-10-02T04:50:20.084Z,15.45
2022-10-02T04:53:42.591Z,15.47
2022-10-02T04:57:03.348Z,15.49
2022-10-02T05:00:13.078Z,15.50
2022-10-02T05:03:40.971Z,15.51
2022-10-02T05:07:02.479Z,15.54
2022-10-02T05:10:24.798Z,15.52
2022-10-02T05:14:07.230Z,15.53
2022-10-02T05:17:29.454Z,15.53
2022-10-02T05:20:53.867Z,15.55
2022-10-02T05:24:19.786Z,15.56
2022-10-02T05:27:49.405Z,15.55
2022-10-02T05:31:04.534Z,15.56
2022-10-02T05:34:32.711Z,15.57
2022-10-02T05:37:53.057Z,15.56
2022-10-02T05:41:06.161Z,15.59
2022-10-02T05:44:18.926Z,15.59
2022-10-02T05:47:30.087Z,15.59
2022-10-02T05:50:39.335Z,15.64
2022-10-02T05:53:51.777Z,15.68
2022-10-02T05:57:04.451Z,15.72
2022-10-02T06:00:24.229Z,15.74
2022-10-02T06:03:37.242Z,15.72
2022-10-02T06:06:47.656Z,15.76
2022-10-02T06:10:00.409Z,15.78
2022-10-02T06:13:14.056Z,15.81
2022-10-02T06:16:25.825Z,15.84
2022-10-02T06:19:35.905Z,15.89
2022-10-02T06:22:47.826Z,15.93
2022-10-02T06:25:57.754Z,15.96
2022-10-02T06:29:06.681Z,15.98
2022-10-02T06:32:24.898Z,15.98
2022-10-02T06:35:44.416Z,16.00
2022-10-02T06:39:19.400Z,16.02
2022-10-02T06:42:42.864Z,16.02
2022-10-02T06:45:58.923Z,16.02
2022-10-02T06:49:13.541Z,16.03
2022-10-02T06:52:35.765Z,16.06
2022-10-02T06:55:52.114Z,16.11
2022-10-02T06:59:10.579Z,16.14
2022-10-02T07:02:33.891Z,16.15
2022-10-02T07:06:07.479Z,16.17
2022-10-02T07:09:44.181Z,16.20
2022-10-02T07:13:12.157Z,16.24
2022-10-02T07:16:33.387Z,16.29
2022-10-02T07:20:06.112Z,16.39
2022-10-02T07:23:29.495Z,16.48
2022-10-02T07:26:55.099Z,16.55
2022-10-02T07:30:06.444Z,16.64
2022-10-02T07:33:21.195Z,16.66
2022-10-02T07:36:39.174Z,16.72
2022-10-02T07:39:58.391Z,16.77
2022-10-02T07:43:18.250Z,16.84
2022-10-02T07:46:34.339Z,16.93
2022-10-02T07:49:52.174Z,16.98
2022-10-02T07:53:10.843Z,17.00
2022-10-02T07:56:22.787Z,17.06
2022-10-02T07:59:31.743Z,17.09
2022-10-02T08:02:44.515Z,17.15
2022-10-02T08:05:53.638Z,17.23
2022-10-02T08:09:04.475Z,17.29
2022-10-02T08:12:28.306Z,17.39
2022-10-02T08:15:38.692Z,17.50
2022-10-02T08:18:50.350Z,17.60
2022-10-02T08:22:02.423Z,17.20
2022-10-02T08:25:18.712Z,16.78
2022-10-02T08:28:30.558Z,16.96
2022-10-02T08:31:36.895Z,17.15
2022-10-02T08:34:44.269Z,17.29
2022-10-02T08:38:10.303Z,17.04
2022-10-02T08:41:44.416Z,16.47
2022-10-02T08:45:35.887Z,16.28
2022-10-02T08:49:28.528Z,16.69
2022-10-02T08:53:00.156Z,17.05
2022-10-02T08:56:26.508Z,17.30
2022-10-02T09:00:07.549Z,17.25
2022-10-02T09:03:52.323Z,16.72
2022-10-02T09:07:29.434Z,16.49
2022-10-02T09:11:20.975Z,16.88
2022-10-02T09:14:47.660Z,17.17
2022-10-02T09:18:07.921Z,17.39
2022-10-02T09:21:29.291Z,17.11
2022-10-02T09:25:11.324Z,16.72
2022-10-02T09:28:59.471Z,16.56
2022-10-02T09:32:43.435Z,16.71
2022-10-02T09:36:29.285Z,17.19
2022-10-02T09:40:10.913Z,17.32
2022-10-02T09:43:51.660Z,16.79
2022-10-02T09:47:24.460Z,16.62
2022-10-02T09:51:21.767Z,17.11
2022-10-02T09:55:01.699Z,17.52
2022-10-02T09:58:44.276Z,17.74
2022-10-02T10:02:31.199Z,17.41
2022-10-02T10:06:14.292Z,16.85
2022-10-02T10:10:05.395Z,16.47
2022-10-02T10:13:38.925Z,16.26
2022-10-02T10:17:21.529Z,16.27
2022-10-02T10:21:01.906Z,16.27
2022-10-02T10:24:39.974Z,16.21
2022-10-02T10:28:13.000Z,16.18
2022-10-02T10:31:57.473Z,16.14
2022-10-02T10:35:37.536Z,16.12
2022-10-02T10:38:53.185Z,16.12
2022-10-02T10:43:03.083Z,16.14
2022-10-02T10:46:23.368Z,16.18
2022-10-02T10:50:12.119Z,16.23
2022-10-02T10:53:44.979Z,16.41
2022-10-02T10:56:55.869Z,16.86
2022-10-02T11:00:22.056Z,17.22
2022-10-02T11:04:04.808Z,17.56
2022-10-02T11:07:36.458Z,17.96
2022-10-02T11:10:53.824Z,18.09
2022-10-02T11:14:20.686Z,17.74
2022-10-02T11:17:42.819Z,17.43
2022-10-02T11:21:23.320Z,17.26
2022-10-02T11:24:51.084Z,17.11
2022-10-02T11:28:32.414Z,16.98
2022-10-02T11:32:01.236Z,16.82
2022-10-02T11:35:25.370Z,16.73
2022-10-02T11:38:55.543Z,16.79
2022-10-02T11:42:29.356Z,17.29
2022-10-02T11:45:49.973Z,17.62
2022-10-02T11:49:27.357Z,17.38
2022-10-02T11:53:00.742Z,17.16
2022-10-02T11:56:31.289Z,17.00
2022-10-02T12:00:06.415Z,16.86
2022-10-02T12:03:21.939Z,16.75
2022-10-02T12:06:47.916Z,16.66
2022-10-02T12:10:06.616Z,16.59
2022-10-02T12:13:38.849Z,16.53
2022-10-02T12:17:07.887Z,16.48
2022-10-02T12:20:42.481Z,16.48
2022-10-02T12:24:14.549Z,16.52
2022-10-02T12:27:30.957Z,16.82
2022-10-02T12:30:44.709Z,17.49
2022-10-02T12:34:01.388Z,17.89
2022-10-02T12:37:16.800Z,17.73
2022-10-02T12:40:32.049Z,17.53
2022-10-02T12:44:05.569Z,17.41
2022-10-02T12:47:35.502Z,17.31
2022-10-02T12:51:06.040Z,17.20
2022-10-02T12:54:46.491Z,17.08
2022-10-02T12:58:07.515Z,16.98
2022-10-02T13:01:54.028Z,16.83
2022-10-02T13:05:44.611Z,16.58
2022-10-02T13:09:19.773Z,16.43
2022-10-02T13:12:51.090Z,16.40
2022-10-02T13:16:04.656Z,16.25
2022-10-02T13:19:21.311Z,16.09
2022-10-02T13:22:38.219Z,16.03
2022-10-02T13:26:06.872Z,16.21
2022-10-02T13:29:29.457Z,16.75
2022-10-02T13:32:59.588Z,17.17
2022-10-02T13:36:17.245Z,17.49
2022-10-02T13:39:36.996Z,17.74
2022-10-02T13:43:09.329Z,17.91
2022-10-02T13:46:30.480Z,18.06
2022-10-02T13:49:55.763Z,18.25
2022-10-02T13:53:32.350Z,18.43
2022-10-02T13:56:51.916Z,18.64
2022-10-02T14:00:09.549Z,18.79
2022-10-02T14:03:23.403Z,18.66
2022-10-02T14:06:35.528Z,18.19
2022-10-02T14:09:53.040Z,17.81
2022-10-02T14:13:19.979Z,17.50
2022-10-02T14:16:40.357Z,17.31
2022-10-02T14:20:18.875Z,17.32
2022-10-02T14:23:53.983Z,17.82
2022-10-02T14:27:12.947Z,18.24
2022-10-02T14:30:23.824Z,18.50
2022-10-02T14:33:40.513Z,18.67
2022-10-02T14:36:57.314Z,18.74
2022-10-02T14:40:11.247Z,18.29
2022-10-02T14:43:33.769Z,17.77
2022-10-02T14:47:15.392Z,17.37
2022-10-02T14:50:51.411Z,17.04
2022-10-02T14:54:13.835Z,16.80
2022-10-02T14:57:37.863Z,16.60
2022-10-02T15:00:56.470Z,16.41
2022-10-02T15:04:31.899Z,16.25
2022-10-02T15:07:39.278Z,16.27
2022-10-02T15:10:51.011Z,16.73
2022-10-02T15:14:04.948Z,17.15
2022-10-02T15:17:34.735Z,17.33
2022-10-02T15:20:59.558Z,16.95
2022-10-02T15:24:28.842Z,16.57
2022-10-02T15:27:44.287Z,16.30
2022-10-02T15:30:58.133Z,16.11
2022-10-02T15:34:15.186Z,16.20
2022-10-02T15:37:28.005Z,16.57
2022-10-02T15:40:37.944Z,16.76
2022-10-02T15:44:06.961Z,16.86
2022-10-02T15:47:32.148Z,16.95
2022-10-02T15:50:53.388Z,17.03
2022-10-02T15:54:11.053Z,17.12
2022-10-02T15:57:31.355Z,17.19
2022-10-02T16:01:02.183Z,17.24
2022-10-02T16:04:23.113Z,17.23
2022-10-02T16:07:47.154Z,17.23
2022-10-02T16:11:06.961Z,17.26
2022-10-02T16:14:16.210Z,17.27
2022-10-02T16:17:41.331Z,17.28
2022-10-02T16:21:20.043Z,17.25
2022-10-02T16:24:41.424Z,17.19
2022-10-02T16:28:04.476Z,17.15
2022-10-02T16:31:26.062Z,17.10
2022-10-02T16:35:13.264Z,17.05
2022-10-02T16:38:25.951Z,16.98
2022-10-02T16:41:42.688Z,16.93
2022-10-02T16:45:07.360Z,16.89
2022-10-02T16:48:18.234Z,16.85
2022-10-02T16:51:50.659Z,16.79
2022-10-02T16:55:06.810Z,16.64
2022-10-02T16:58:27.412Z,16.53
2022-10-02T17:02:05.502Z,16.47
2022-10-02T17:05:23.365Z,16.46
2022-10-02T17:08:37.729Z,16.42
2022-10-02T17:11:53.998Z,16.31
2022-10-02T17:15:10.220Z,16.16
2022-10-02T17:18:29.537Z,16.06
2022-10-02T17:21:45.805Z,16.04
2022-10-02T17:25:02.634Z,16.03
2022-10-02T17:28:21.102Z,16.02
2022-10-02T17:31:42.114Z,16.07
2022-10-02T17:34:52.066Z,16.13
2022-10-02T17:38:18.781Z,16.19
2022-10-02T17:41:42.497Z,16.23
2022-10-02T17:44:58.271Z,16.26
2022-10-02T17:48:21.914Z,16.29
2022-10-02T17:51:53.669Z,16.33
2022-10-02T17:55:27.687Z,16.35
2022-10-02T17:58:44.295Z,16.37
2022-10-02T18:02:02.291Z,16.36
2022-10-02T18:05:22.324Z,16.34
2022-10-02T18:09:06.992Z,16.34
2022-10-02T18:12:51.954Z,16.32
2022-10-02T18:16:10.645Z,16.29
2022-10-02T18:19:36.427Z,16.26
2022-10-02T18:22:58.567Z,16.25
2022-10-02T18:26:20.258Z,16.25
2022-10-02T18:29:38.048Z,16.25
2022-10-02T18:33:09.302Z,16.24
2022-10-02T18:36:39.252Z,16.22
2022-10-02T18:40:04.876Z,16.20
2022-10-02T18:43:43.466Z,16.19
2022-10-02T18:46:59.464Z,16.16
2022-10-02T18:50:18.525Z,16.14
2022-10-02T18:53:52.268Z,16.13
2022-10-02T18:57:14.413Z,16.10
2022-10-02T19:00:24.429Z,16.07
2022-10-02T19:03:37.999Z,16.02
2022-10-02T19:06:53.573Z,15.98
2022-10-02T19:10:29.370Z,15.95
2022-10-02T19:13:42.276Z,15.91
2022-10-02T19:17:02.567Z,15.87
2022-10-02T19:20:37.095Z,15.83
2022-10-02T19:23:50.433Z,15.79
2022-10-02T19:27:00.724Z,15.76
2022-10-02T19:30:23.579Z,15.75
2022-10-02T19:33:43.530Z,15.72
2022-10-02T19:36:53.239Z,15.70
2022-10-02T19:40:03.292Z,15.68
2022-10-02T19:43:19.102Z,15.67
2022-10-02T19:46:39.928Z,15.65
2022-10-02T19:49:48.058Z,15.63
2022-10-02T19:52:58.872Z,15.61
2022-10-02T19:56:11.248Z,15.53
2022-10-02T19:59:21.219Z,15.48
2022-10-02T20:02:31.255Z,15.41
2022-10-02T20:05:38.785Z,15.37
2022-10-02T20:08:47.946Z,15.33
2022-10-02T20:11:56.437Z,15.26
2022-10-02T20:15:10.260Z,15.20
2022-10-02T20:18:17.086Z,15.21
2022-10-02T20:21:30.903Z,15.25
2022-10-02T20:24:42.636Z,15.22
2022-10-02T20:27:54.178Z,15.20
2022-10-02T20:31:05.945Z,15.21
2022-10-02T20:34:23.692Z,15.23
2022-10-02T20:37:35.079Z,15.25
2022-10-02T20:40:47.651Z,15.21
2022-10-02T20:43:56.670Z,15.22
2022-10-02T20:47:32.219Z,15.23
2022-10-02T20:50:41.728Z,15.22
2022-10-02T20:54:18.880Z,15.20
2022-10-02T20:58:01.626Z,15.21
2022-10-02T21:01:20.021Z,15.17
2022-10-02T21:05:11.224Z,15.12
2022-10-02T21:08:40.864Z,15.08
2022-10-02T21:12:11.270Z,15.05
2022-10-02T21:15:58.804Z,15.00
2022-10-02T21:19:31.638Z,14.99
2022-10-02T21:23:23.733Z,14.99
2022-10-02T21:26:48.962Z,14.97
2022-10-02T21:30:04.981Z,14.95
2022-10-02T21:33:21.704Z,14.90
2022-10-02T21:36:34.196Z,14.90
2022-10-02T21:40:09.423Z,14.90
2022-10-02T21:43:48.981Z,14.90
2022-10-02T21:47:18.963Z,14.88
2022-10-02T21:51:07.954Z,14.87
2022-10-02T21:54:49.845Z,14.87
2022-10-02T21:58:38.710Z,14.87
2022-10-02T22:02:15.256Z,14.90
2022-10-02T22:05:42.082Z,14.91
2022-10-02T22:09:03.363Z,14.91
2022-10-02T22:12:21.842Z,14.92
2022-10-02T22:15:39.637Z,14.91
2022-10-02T22:18:54.947Z,14.85
2022-10-02T22:22:13.407Z,14.83
2022-10-02T22:25:34.342Z,14.80
2022-10-02T22:28:46.399Z,14.79
2022-10-02T22:32:29.513Z,14.78
2022-10-02T22:35:50.046Z,14.74
2022-10-02T22:39:03.580Z,14.73
2022-10-02T22:42:15.871Z,14.73
2022-10-02T22:45:27.755Z,14.71
2022-10-02T22:48:41.412Z,14.73
2022-10-02T22:51:54.889Z,14.74
2022-10-02T22:55:11.479Z,14.72
2022-10-02T22:58:24.376Z,14.71
2022-10-02T23:01:39.777Z,14.66
2022-10-02T23:04:53.408Z,14.64
2022-10-02T23:08:06.795Z,14.61
2022-10-02T23:11:18.193Z,14.60
2022-10-02T23:14:35.747Z,14.62
2022-10-02T23:17:50.826Z,14.63
2022-10-02T23:21:04.955Z,14.65
2022-10-02T23:24:26.169Z,14.66
2022-10-02T23:27:39.859Z,14.66
2022-10-02T23:30:50.234Z,14.67
2022-10-02T23:34:03.914Z,14.68
2022-10-02T23:37:18.735Z,14.68
2022-10-02T23:40:43.990Z,14.68
2022-10-02T23:43:58.791Z,14.68
2022-10-02T23:47:17.539Z,14.71
2022-10-02T23:50:28.394Z,14.71
2022-10-02T23:53:58.564Z,14.71
2022-10-02T23:57:21.814Z,14.69
